sensor_id;sensor_type;location;lat;lon;timestamp;P1;durP1;ratioP1;P2;durP2;ratioP2
24559;SDS011;12727;49.934;8.656;2022-12-10T00:02:04;37.10;;;19.02;;
24559;SDS011;12727;49.934;8.656;2022-12-10T00:04:30;36.53;;;19.17;;
24559;SDS011;12727;49.934;8.656;2022-12-10T00:06:55;35.67;;;19.00;;
24559;SDS011;12727;49.934;8.656;2022-12-10T00:09:21;37.42;;;18.52;;
24559;SDS011;12727;49.934;8.656;2022-12-10T00:11:47;35.13;;;19.00;;
24559;SDS011;12727;49.934;8.656;2022-12-10T00:14:12;37.17;;;18.90;;
24559;SDS011;12727;49.934;8.656;2022-12-10T00:16:39;37.22;;;18.35;;
24559;SDS011;12727;49.934;8.656;2022-12-10T00:19:06;38.28;;;19.30;;
24559;SDS011;12727;49.934;8.656;2022-12-10T00:21:34;36.22;;;19.17;;
24559;SDS011;12727;49.934;8.656;2022-12-10T00:24:00;35.58;;;19.02;;
24559;SDS011;12727;49.934;8.656;2022-12-10T00:26:30;36.03;;;18.20;;
24559;SDS011;12727;49.934;8.656;2022-12-10T00:28:59;38.17;;;18.80;;
24559;SDS011;12727;49.934;8.656;2022-12-10T00:31:26;36.28;;;17.90;;
24559;SDS011;12727;49.934;8.656;2022-12-10T00:33:55;40.08;;;19.38;;
24559;SDS011;12727;49.934;8.656;2022-12-10T00:36:23;38.38;;;18.88;;
24559;SDS011;12727;49.934;8.656;2022-12-10T00:38:50;38.28;;;19.33;;
24559;SDS011;12727;49.934;8.656;2022-12-10T00:41:16;36.22;;;18.80;;
24559;SDS011;12727;49.934;8.656;2022-12-10T00:43:42;37.97;;;19.27;;
24559;SDS011;12727;49.934;8.656;2022-12-10T00:46:08;36.75;;;19.13;;
24559;SDS011;12727;49.934;8.656;2022-12-10T00:48:34;38.42;;;18.75;;
24559;SDS011;12727;49.934;8.656;2022-12-10T00:51:07;37.38;;;19.08;;
24559;SDS011;12727;49.934;8.656;2022-12-10T00:53:36;35.15;;;16.30;;
24559;SDS011;12727;49.934;8.656;2022-12-10T00:56:03;36.42;;;17.75;;
24559;SDS011;12727;49.934;8.656;2022-12-10T00:58:30;36.00;;;18.58;;
24559;SDS011;12727;49.934;8.656;2022-12-10T01:03:58;35.60;;;17.95;;
24559;SDS011;12727;49.934;8.656;2022-12-10T01:06:26;33.55;;;16.30;;
24559;SDS011;12727;49.934;8.656;2022-12-10T01:08:57;37.70;;;18.20;;
24559;SDS011;12727;49.934;8.656;2022-12-10T01:11:26;36.75;;;18.63;;
24559;SDS011;12727;49.934;8.656;2022-12-10T01:13:55;35.30;;;18.13;;
24559;SDS011;12727;49.934;8.656;2022-12-10T01:16:21;34.90;;;18.38;;
24559;SDS011;12727;49.934;8.656;2022-12-10T01:18:48;38.45;;;18.88;;
24559;SDS011;12727;49.934;8.656;2022-12-10T01:21:15;36.00;;;17.95;;
24559;SDS011;12727;49.934;8.656;2022-12-10T01:23:43;34.17;;;17.70;;
24559;SDS011;12727;49.934;8.656;2022-12-10T01:26:12;35.17;;;18.45;;
24559;SDS011;12727;49.934;8.656;2022-12-10T01:28:40;34.92;;;17.05;;
24559;SDS011;12727;49.934;8.656;2022-12-10T01:31:08;33.38;;;17.52;;
24559;SDS011;12727;49.934;8.656;2022-12-10T01:33:38;33.50;;;17.63;;
24559;SDS011;12727;49.934;8.656;2022-12-10T01:36:06;33.45;;;17.13;;
24559;SDS011;12727;49.934;8.656;2022-12-10T01:38:33;37.13;;;17.60;;
24559;SDS011;12727;49.934;8.656;2022-12-10T01:40:59;33.63;;;17.05;;
24559;SDS011;12727;49.934;8.656;2022-12-10T01:43:26;32.13;;;16.75;;
24559;SDS011;12727;49.934;8.656;2022-12-10T01:45:52;32.13;;;17.00;;
24559;SDS011;12727;49.934;8.656;2022-12-10T01:48:18;33.63;;;16.92;;
24559;SDS011;12727;49.934;8.656;2022-12-10T01:50:44;36.03;;;16.73;;
24559;SDS011;12727;49.934;8.656;2022-12-10T01:53:10;32.00;;;16.70;;
24559;SDS011;12727;49.934;8.656;2022-12-10T01:55:48;32.85;;;17.27;;
24559;SDS011;12727;49.934;8.656;2022-12-10T01:58:16;31.40;;;15.13;;
24559;SDS011;12727;49.934;8.656;2022-12-10T02:00:47;30.60;;;15.75;;
24559;SDS011;12727;49.934;8.656;2022-12-10T02:03:26;33.55;;;16.52;;
24559;SDS011;12727;49.934;8.656;2022-12-10T02:06:16;30.75;;;16.20;;
24559;SDS011;12727;49.934;8.656;2022-12-10T02:09:34;31.60;;;17.38;;
24559;SDS011;12727;49.934;8.656;2022-12-10T02:11:40;35.45;;;17.15;;
24559;SDS011;12727;49.934;8.656;2022-12-10T02:14:18;30.92;;;16.48;;
24559;SDS011;12727;49.934;8.656;2022-12-10T02:16:59;33.47;;;17.15;;
24559;SDS011;12727;49.934;8.656;2022-12-10T02:22:30;32.97;;;17.13;;
24559;SDS011;12727;49.934;8.656;2022-12-10T02:24:59;29.88;;;16.45;;
24559;SDS011;12727;49.934;8.656;2022-12-10T02:30:11;30.73;;;16.33;;
24559;SDS011;12727;49.934;8.656;2022-12-10T02:32:38;30.45;;;15.52;;
24559;SDS011;12727;49.934;8.656;2022-12-10T02:35:09;27.77;;;14.25;;
24559;SDS011;12727;49.934;8.656;2022-12-10T02:37:39;31.13;;;15.43;;
24559;SDS011;12727;49.934;8.656;2022-12-10T02:40:16;28.40;;;14.85;;
24559;SDS011;12727;49.934;8.656;2022-12-10T02:42:46;25.77;;;13.43;;
24559;SDS011;12727;49.934;8.656;2022-12-10T02:45:15;26.95;;;14.05;;
24559;SDS011;12727;49.934;8.656;2022-12-10T02:47:41;30.27;;;15.13;;
24559;SDS011;12727;49.934;8.656;2022-12-10T02:50:08;27.42;;;14.52;;
24559;SDS011;12727;49.934;8.656;2022-12-10T02:52:36;27.52;;;15.07;;
24559;SDS011;12727;49.934;8.656;2022-12-10T02:55:02;29.17;;;15.07;;
24559;SDS011;12727;49.934;8.656;2022-12-10T02:57:29;27.73;;;15.00;;
24559;SDS011;12727;49.934;8.656;2022-12-10T03:02:38;23.00;;;14.13;;
24559;SDS011;12727;49.934;8.656;2022-12-10T03:05:16;26.88;;;14.43;;
24559;SDS011;12727;49.934;8.656;2022-12-10T03:07:55;23.63;;;12.90;;
24559;SDS011;12727;49.934;8.656;2022-12-10T03:13:04;24.52;;;13.32;;
24559;SDS011;12727;49.934;8.656;2022-12-10T03:15:35;25.80;;;13.52;;
24559;SDS011;12727;49.934;8.656;2022-12-10T03:18:04;23.45;;;13.10;;
24559;SDS011;12727;49.934;8.656;2022-12-10T03:20:33;25.15;;;14.27;;
24559;SDS011;12727;49.934;8.656;2022-12-10T03:23:02;23.75;;;12.68;;
24559;SDS011;12727;49.934;8.656;2022-12-10T03:25:30;24.30;;;13.77;;
24559;SDS011;12727;49.934;8.656;2022-12-10T03:27:57;26.70;;;15.23;;
24559;SDS011;12727;49.934;8.656;2022-12-10T03:30:25;25.52;;;13.82;;
24559;SDS011;12727;49.934;8.656;2022-12-10T03:32:51;25.83;;;13.60;;
24559;SDS011;12727;49.934;8.656;2022-12-10T03:35:17;23.40;;;13.32;;
24559;SDS011;12727;49.934;8.656;2022-12-10T03:37:45;26.17;;;13.50;;
24559;SDS011;12727;49.934;8.656;2022-12-10T03:40:11;24.77;;;13.32;;
24559;SDS011;12727;49.934;8.656;2022-12-10T03:42:37;25.35;;;13.70;;
24559;SDS011;12727;49.934;8.656;2022-12-10T03:45:03;24.85;;;12.82;;
24559;SDS011;12727;49.934;8.656;2022-12-10T03:47:30;24.65;;;13.23;;
24559;SDS011;12727;49.934;8.656;2022-12-10T03:49:55;25.27;;;13.15;;
24559;SDS011;12727;49.934;8.656;2022-12-10T03:52:21;27.15;;;14.38;;
24559;SDS011;12727;49.934;8.656;2022-12-10T03:54:46;24.90;;;13.88;;
24559;SDS011;12727;49.934;8.656;2022-12-10T03:57:12;26.20;;;13.73;;
24559;SDS011;12727;49.934;8.656;2022-12-10T03:59:38;24.52;;;14.40;;
24559;SDS011;12727;49.934;8.656;2022-12-10T04:02:03;22.90;;;13.27;;
24559;SDS011;12727;49.934;8.656;2022-12-10T04:04:29;22.35;;;12.68;;
24559;SDS011;12727;49.934;8.656;2022-12-10T04:06:54;26.67;;;13.88;;
24559;SDS011;12727;49.934;8.656;2022-12-10T04:09:20;25.90;;;13.65;;
24559;SDS011;12727;49.934;8.656;2022-12-10T04:11:46;30.40;;;14.82;;
24559;SDS011;12727;49.934;8.656;2022-12-10T04:14:12;29.77;;;15.50;;
24559;SDS011;12727;49.934;8.656;2022-12-10T04:17:07;27.85;;;15.10;;
24559;SDS011;12727;49.934;8.656;2022-12-10T04:19:32;27.70;;;14.90;;
24559;SDS011;12727;49.934;8.656;2022-12-10T04:21:58;23.55;;;13.55;;
24559;SDS011;12727;49.934;8.656;2022-12-10T04:24:42;26.08;;;14.10;;
24559;SDS011;12727;49.934;8.656;2022-12-10T04:27:27;28.35;;;14.32;;
24559;SDS011;12727;49.934;8.656;2022-12-10T04:29:55;24.83;;;13.80;;
24559;SDS011;12727;49.934;8.656;2022-12-10T04:32:22;29.05;;;13.63;;
24559;SDS011;12727;49.934;8.656;2022-12-10T04:34:48;24.90;;;13.85;;
24559;SDS011;12727;49.934;8.656;2022-12-10T04:37:14;26.45;;;15.23;;
24559;SDS011;12727;49.934;8.656;2022-12-10T04:39:41;26.58;;;14.38;;
24559;SDS011;12727;49.934;8.656;2022-12-10T04:42:07;28.95;;;14.85;;
24559;SDS011;12727;49.934;8.656;2022-12-10T04:44:33;24.52;;;14.27;;
24559;SDS011;12727;49.934;8.656;2022-12-10T04:46:59;24.02;;;13.77;;
24559;SDS011;12727;49.934;8.656;2022-12-10T04:49:25;25.52;;;14.38;;
24559;SDS011;12727;49.934;8.656;2022-12-10T04:51:51;26.92;;;14.60;;
24559;SDS011;12727;49.934;8.656;2022-12-10T04:54:17;25.40;;;14.02;;
24559;SDS011;12727;49.934;8.656;2022-12-10T04:56:43;26.00;;;14.88;;
24559;SDS011;12727;49.934;8.656;2022-12-10T04:59:09;33.63;;;15.55;;
24559;SDS011;12727;49.934;8.656;2022-12-10T05:01:35;29.63;;;15.85;;
24559;SDS011;12727;49.934;8.656;2022-12-10T05:04:02;25.65;;;14.48;;
24559;SDS011;12727;49.934;8.656;2022-12-10T05:06:29;27.27;;;13.93;;
24559;SDS011;12727;49.934;8.656;2022-12-10T05:08:55;27.58;;;14.52;;
24559;SDS011;12727;49.934;8.656;2022-12-10T05:11:21;28.63;;;14.05;;
24559;SDS011;12727;49.934;8.656;2022-12-10T05:13:47;32.40;;;16.05;;
24559;SDS011;12727;49.934;8.656;2022-12-10T05:16:14;30.05;;;16.58;;
24559;SDS011;12727;49.934;8.656;2022-12-10T05:18:42;29.25;;;15.43;;
24559;SDS011;12727;49.934;8.656;2022-12-10T05:21:12;26.55;;;14.52;;
24559;SDS011;12727;49.934;8.656;2022-12-10T05:23:40;27.00;;;15.23;;
24559;SDS011;12727;49.934;8.656;2022-12-10T05:26:18;30.92;;;15.57;;
24559;SDS011;12727;49.934;8.656;2022-12-10T05:28:49;34.65;;;16.67;;
24559;SDS011;12727;49.934;8.656;2022-12-10T05:31:18;33.60;;;15.60;;
24559;SDS011;12727;49.934;8.656;2022-12-10T05:33:49;30.35;;;15.75;;
24559;SDS011;12727;49.934;8.656;2022-12-10T05:36:16;27.73;;;15.15;;
24559;SDS011;12727;49.934;8.656;2022-12-10T05:38:44;23.23;;;13.02;;
24559;SDS011;12727;49.934;8.656;2022-12-10T05:41:14;21.58;;;12.02;;
24559;SDS011;12727;49.934;8.656;2022-12-10T05:43:43;22.80;;;12.40;;
24559;SDS011;12727;49.934;8.656;2022-12-10T05:46:11;25.67;;;14.00;;
24559;SDS011;12727;49.934;8.656;2022-12-10T05:48:39;22.60;;;12.45;;
24559;SDS011;12727;49.934;8.656;2022-12-10T05:51:05;26.30;;;14.63;;
24559;SDS011;12727;49.934;8.656;2022-12-10T05:53:33;27.67;;;13.68;;
24559;SDS011;12727;49.934;8.656;2022-12-10T05:56:00;24.15;;;12.73;;
24559;SDS011;12727;49.934;8.656;2022-12-10T05:58:27;29.48;;;14.25;;
24559;SDS011;12727;49.934;8.656;2022-12-10T06:00:54;26.20;;;14.57;;
24559;SDS011;12727;49.934;8.656;2022-12-10T06:03:20;23.55;;;12.77;;
24559;SDS011;12727;49.934;8.656;2022-12-10T06:05:45;28.85;;;14.38;;
24559;SDS011;12727;49.934;8.656;2022-12-10T06:08:11;28.05;;;14.23;;
24559;SDS011;12727;49.934;8.656;2022-12-10T06:10:36;26.35;;;13.82;;
24559;SDS011;12727;49.934;8.656;2022-12-10T06:13:02;29.23;;;14.23;;
24559;SDS011;12727;49.934;8.656;2022-12-10T06:15:28;26.42;;;13.15;;
24559;SDS011;12727;49.934;8.656;2022-12-10T06:17:55;26.70;;;14.07;;
24559;SDS011;12727;49.934;8.656;2022-12-10T06:20:21;24.02;;;12.70;;
24559;SDS011;12727;49.934;8.656;2022-12-10T06:22:47;26.10;;;13.05;;
24559;SDS011;12727;49.934;8.656;2022-12-10T06:25:12;26.35;;;13.60;;
24559;SDS011;12727;49.934;8.656;2022-12-10T06:27:38;21.67;;;12.30;;
24559;SDS011;12727;49.934;8.656;2022-12-10T06:30:04;25.13;;;13.45;;
24559;SDS011;12727;49.934;8.656;2022-12-10T06:32:30;26.85;;;13.68;;
24559;SDS011;12727;49.934;8.656;2022-12-10T06:34:56;28.20;;;14.25;;
24559;SDS011;12727;49.934;8.656;2022-12-10T06:37:22;28.17;;;14.20;;
24559;SDS011;12727;49.934;8.656;2022-12-10T06:39:49;28.08;;;13.88;;
24559;SDS011;12727;49.934;8.656;2022-12-10T06:42:16;32.60;;;15.55;;
24559;SDS011;12727;49.934;8.656;2022-12-10T06:44:41;30.83;;;14.52;;
24559;SDS011;12727;49.934;8.656;2022-12-10T06:47:07;27.48;;;13.75;;
24559;SDS011;12727;49.934;8.656;2022-12-10T06:49:32;32.63;;;15.18;;
24559;SDS011;12727;49.934;8.656;2022-12-10T06:51:58;29.58;;;14.63;;
24559;SDS011;12727;49.934;8.656;2022-12-10T06:54:23;28.65;;;14.98;;
24559;SDS011;12727;49.934;8.656;2022-12-10T06:56:49;30.52;;;15.23;;
24559;SDS011;12727;49.934;8.656;2022-12-10T06:59:15;34.78;;;16.15;;
24559;SDS011;12727;49.934;8.656;2022-12-10T07:01:40;35.03;;;16.38;;
24559;SDS011;12727;49.934;8.656;2022-12-10T07:04:06;33.38;;;16.02;;
24559;SDS011;12727;49.934;8.656;2022-12-10T07:06:32;33.13;;;16.25;;
24559;SDS011;12727;49.934;8.656;2022-12-10T07:08:58;38.38;;;16.38;;
24559;SDS011;12727;49.934;8.656;2022-12-10T07:11:23;33.58;;;15.55;;
24559;SDS011;12727;49.934;8.656;2022-12-10T07:13:50;34.83;;;16.17;;
24559;SDS011;12727;49.934;8.656;2022-12-10T07:16:17;29.45;;;15.25;;
24559;SDS011;12727;49.934;8.656;2022-12-10T07:18:48;30.63;;;15.23;;
24559;SDS011;12727;49.934;8.656;2022-12-10T07:21:34;29.70;;;15.05;;
24559;SDS011;12727;49.934;8.656;2022-12-10T07:24:01;30.50;;;15.05;;
24559;SDS011;12727;49.934;8.656;2022-12-10T07:26:33;32.33;;;15.70;;
24559;SDS011;12727;49.934;8.656;2022-12-10T07:29:01;30.10;;;15.27;;
24559;SDS011;12727;49.934;8.656;2022-12-10T07:31:28;33.10;;;16.15;;
24559;SDS011;12727;49.934;8.656;2022-12-10T07:33:54;32.35;;;15.75;;
24559;SDS011;12727;49.934;8.656;2022-12-10T07:36:20;28.17;;;14.60;;
24559;SDS011;12727;49.934;8.656;2022-12-10T07:38:53;33.85;;;15.75;;
24559;SDS011;12727;49.934;8.656;2022-12-10T07:41:19;29.52;;;14.98;;
24559;SDS011;12727;49.934;8.656;2022-12-10T07:43:49;30.13;;;15.02;;
24559;SDS011;12727;49.934;8.656;2022-12-10T07:46:18;32.78;;;16.63;;
24559;SDS011;12727;49.934;8.656;2022-12-10T07:48:49;28.40;;;15.27;;
24559;SDS011;12727;49.934;8.656;2022-12-10T07:51:16;28.50;;;15.15;;
24559;SDS011;12727;49.934;8.656;2022-12-10T07:53:43;29.33;;;15.05;;
24559;SDS011;12727;49.934;8.656;2022-12-10T07:56:09;25.10;;;13.68;;
24559;SDS011;12727;49.934;8.656;2022-12-10T07:58:36;27.90;;;14.60;;
24559;SDS011;12727;49.934;8.656;2022-12-10T08:01:09;28.63;;;14.50;;
24559;SDS011;12727;49.934;8.656;2022-12-10T08:03:40;28.60;;;15.40;;
24559;SDS011;12727;49.934;8.656;2022-12-10T08:06:07;27.55;;;14.70;;
24559;SDS011;12727;49.934;8.656;2022-12-10T08:08:38;26.52;;;14.90;;
24559;SDS011;12727;49.934;8.656;2022-12-10T08:11:05;26.25;;;14.15;;
24559;SDS011;12727;49.934;8.656;2022-12-10T08:13:31;30.08;;;14.88;;
24559;SDS011;12727;49.934;8.656;2022-12-10T08:16:02;26.90;;;13.98;;
24559;SDS011;12727;49.934;8.656;2022-12-10T08:18:29;25.85;;;14.18;;
24559;SDS011;12727;49.934;8.656;2022-12-10T08:20:56;28.52;;;14.60;;
24559;SDS011;12727;49.934;8.656;2022-12-10T08:23:21;28.20;;;14.88;;
24559;SDS011;12727;49.934;8.656;2022-12-10T08:25:47;28.10;;;15.40;;
24559;SDS011;12727;49.934;8.656;2022-12-10T08:28:13;27.33;;;13.82;;
24559;SDS011;12727;49.934;8.656;2022-12-10T08:30:38;29.67;;;15.35;;
24559;SDS011;12727;49.934;8.656;2022-12-10T08:33:04;27.55;;;15.55;;
24559;SDS011;12727;49.934;8.656;2022-12-10T08:35:30;23.92;;;13.63;;
24559;SDS011;12727;49.934;8.656;2022-12-10T08:37:55;27.17;;;14.85;;
24559;SDS011;12727;49.934;8.656;2022-12-10T08:40:21;28.35;;;14.88;;
24559;SDS011;12727;49.934;8.656;2022-12-10T08:42:46;24.73;;;14.10;;
24559;SDS011;12727;49.934;8.656;2022-12-10T08:45:12;23.77;;;12.18;;
24559;SDS011;12727;49.934;8.656;2022-12-10T08:47:37;25.60;;;14.20;;
24559;SDS011;12727;49.934;8.656;2022-12-10T08:50:03;23.63;;;13.15;;
24559;SDS011;12727;49.934;8.656;2022-12-10T08:52:29;25.23;;;13.48;;
24559;SDS011;12727;49.934;8.656;2022-12-10T08:54:55;25.40;;;13.25;;
24559;SDS011;12727;49.934;8.656;2022-12-10T08:57:21;24.75;;;13.60;;
24559;SDS011;12727;49.934;8.656;2022-12-10T08:59:46;29.27;;;14.48;;
24559;SDS011;12727;49.934;8.656;2022-12-10T09:02:15;25.23;;;14.35;;
24559;SDS011;12727;49.934;8.656;2022-12-10T09:04:41;28.67;;;14.25;;
24559;SDS011;12727;49.934;8.656;2022-12-10T09:07:07;31.13;;;14.88;;
24559;SDS011;12727;49.934;8.656;2022-12-10T09:09:33;27.35;;;15.30;;
24559;SDS011;12727;49.934;8.656;2022-12-10T09:11:59;28.38;;;14.15;;
24559;SDS011;12727;49.934;8.656;2022-12-10T09:14:25;23.80;;;14.30;;
24559;SDS011;12727;49.934;8.656;2022-12-10T09:16:53;26.25;;;14.40;;
24559;SDS011;12727;49.934;8.656;2022-12-10T09:19:27;27.10;;;14.57;;
24559;SDS011;12727;49.934;8.656;2022-12-10T09:21:53;24.85;;;14.20;;
24559;SDS011;12727;49.934;8.656;2022-12-10T09:24:18;24.48;;;14.20;;
24559;SDS011;12727;49.934;8.656;2022-12-10T09:26:44;24.70;;;14.57;;
24559;SDS011;12727;49.934;8.656;2022-12-10T09:29:11;26.38;;;15.00;;
24559;SDS011;12727;49.934;8.656;2022-12-10T09:31:38;23.23;;;13.45;;
24559;SDS011;12727;49.934;8.656;2022-12-10T09:34:04;23.63;;;14.10;;
24559;SDS011;12727;49.934;8.656;2022-12-10T09:36:29;23.20;;;13.85;;
24559;SDS011;12727;49.934;8.656;2022-12-10T09:38:55;25.63;;;13.85;;
24559;SDS011;12727;49.934;8.656;2022-12-10T09:52:03;20.77;;;12.80;;
24559;SDS011;12727;49.934;8.656;2022-12-10T09:54:36;21.23;;;12.40;;
24559;SDS011;12727;49.934;8.656;2022-12-10T09:57:18;20.08;;;12.80;;
24559;SDS011;12727;49.934;8.656;2022-12-10T09:59:48;18.83;;;12.02;;
24559;SDS011;12727;49.934;8.656;2022-12-10T10:02:24;17.52;;;11.70;;
24559;SDS011;12727;49.934;8.656;2022-12-10T10:07:34;16.55;;;10.90;;
24559;SDS011;12727;49.934;8.656;2022-12-10T10:10:11;17.17;;;11.15;;
24559;SDS011;12727;49.934;8.656;2022-12-10T10:12:51;17.25;;;11.38;;
24559;SDS011;12727;49.934;8.656;2022-12-10T10:15:22;15.77;;;10.88;;
24559;SDS011;12727;49.934;8.656;2022-12-10T10:17:51;16.73;;;11.00;;
24559;SDS011;12727;49.934;8.656;2022-12-10T10:20:19;18.58;;;11.60;;
24559;SDS011;12727;49.934;8.656;2022-12-10T10:22:45;18.67;;;12.00;;
24559;SDS011;12727;49.934;8.656;2022-12-10T10:25:15;18.27;;;11.65;;
24559;SDS011;12727;49.934;8.656;2022-12-10T10:27:42;19.05;;;12.10;;
24559;SDS011;12727;49.934;8.656;2022-12-10T10:30:19;19.67;;;11.73;;
24559;SDS011;12727;49.934;8.656;2022-12-10T10:32:53;20.42;;;13.13;;
24559;SDS011;12727;49.934;8.656;2022-12-10T10:35:27;19.58;;;12.77;;
24559;SDS011;12727;49.934;8.656;2022-12-10T10:37:56;20.98;;;13.05;;
24559;SDS011;12727;49.934;8.656;2022-12-10T10:43:55;20.10;;;13.23;;
24559;SDS011;12727;49.934;8.656;2022-12-10T10:45:59;21.67;;;13.45;;
24559;SDS011;12727;49.934;8.656;2022-12-10T10:48:28;19.05;;;12.57;;
24559;SDS011;12727;49.934;8.656;2022-12-10T10:53:53;19.48;;;12.65;;
24559;SDS011;12727;49.934;8.656;2022-12-10T10:56:29;20.17;;;12.95;;
24559;SDS011;12727;49.934;8.656;2022-12-10T10:59:20;19.95;;;12.35;;
24559;SDS011;12727;49.934;8.656;2022-12-10T11:01:55;20.48;;;13.38;;
24559;SDS011;12727;49.934;8.656;2022-12-10T11:04:45;21.85;;;13.50;;
24559;SDS011;12727;49.934;8.656;2022-12-10T11:07:19;22.42;;;14.02;;
24559;SDS011;12727;49.934;8.656;2022-12-10T11:09:47;23.92;;;13.38;;
24559;SDS011;12727;49.934;8.656;2022-12-10T11:12:27;22.63;;;14.45;;
24559;SDS011;12727;49.934;8.656;2022-12-10T11:17:51;24.45;;;13.98;;
24559;SDS011;12727;49.934;8.656;2022-12-10T11:20:20;23.67;;;14.50;;
24559;SDS011;12727;49.934;8.656;2022-12-10T11:26:05;21.33;;;14.02;;
24559;SDS011;12727;49.934;8.656;2022-12-10T11:30:41;21.80;;;13.18;;
24559;SDS011;12727;49.934;8.656;2022-12-10T11:38:55;23.90;;;13.77;;
24559;SDS011;12727;49.934;8.656;2022-12-10T11:44:24;24.25;;;14.57;;
24559;SDS011;12727;49.934;8.656;2022-12-10T11:49:48;22.80;;;13.70;;
24559;SDS011;12727;49.934;8.656;2022-12-10T12:06:29;22.40;;;13.77;;
24559;SDS011;12727;49.934;8.656;2022-12-10T12:12:05;24.35;;;13.80;;
24559;SDS011;12727;49.934;8.656;2022-12-10T12:14:58;25.30;;;14.77;;
24559;SDS011;12727;49.934;8.656;2022-12-10T12:17:36;23.33;;;14.05;;
24559;SDS011;12727;49.934;8.656;2022-12-10T12:26:47;20.95;;;13.15;;
24559;SDS011;12727;49.934;8.656;2022-12-10T12:32:55;22.77;;;13.57;;
24559;SDS011;12727;49.934;8.656;2022-12-10T12:43:09;19.70;;;12.73;;
24559;SDS011;12727;49.934;8.656;2022-12-10T12:51:34;22.45;;;12.77;;
24559;SDS011;12727;49.934;8.656;2022-12-10T12:53:58;20.13;;;12.40;;
24559;SDS011;12727;49.934;8.656;2022-12-10T12:56:42;20.65;;;12.63;;
24559;SDS011;12727;49.934;8.656;2022-12-10T13:02:22;21.15;;;12.13;;
24559;SDS011;12727;49.934;8.656;2022-12-10T13:05:12;22.55;;;13.52;;
24559;SDS011;12727;49.934;8.656;2022-12-10T13:08:15;21.02;;;13.23;;
24559;SDS011;12727;49.934;8.656;2022-12-10T13:11:00;20.85;;;12.85;;
24559;SDS011;12727;49.934;8.656;2022-12-10T13:22:56;20.17;;;12.52;;
24559;SDS011;12727;49.934;8.656;2022-12-10T13:25:58;19.42;;;12.35;;
24559;SDS011;12727;49.934;8.656;2022-12-10T13:42:42;20.83;;;12.02;;
24559;SDS011;12727;49.934;8.656;2022-12-10T13:45:29;21.05;;;10.52;;
24559;SDS011;12727;49.934;8.656;2022-12-10T14:07:53;27.05;;;17.95;;
24559;SDS011;12727;49.934;8.656;2022-12-10T14:10:26;22.60;;;14.00;;
24559;SDS011;12727;49.934;8.656;2022-12-10T14:12:55;22.35;;;13.45;;
24559;SDS011;12727;49.934;8.656;2022-12-10T14:15:22;20.40;;;12.13;;
24559;SDS011;12727;49.934;8.656;2022-12-10T14:17:51;21.73;;;13.43;;
24559;SDS011;12727;49.934;8.656;2022-12-10T14:20:23;23.83;;;13.57;;
24559;SDS011;12727;49.934;8.656;2022-12-10T14:22:51;25.88;;;13.75;;
24559;SDS011;12727;49.934;8.656;2022-12-10T14:25:21;20.50;;;12.70;;
24559;SDS011;12727;49.934;8.656;2022-12-10T14:27:48;23.60;;;13.88;;
24559;SDS011;12727;49.934;8.656;2022-12-10T14:32:53;23.98;;;14.10;;
24559;SDS011;12727;49.934;8.656;2022-12-10T14:35:37;21.85;;;12.57;;
24559;SDS011;12727;49.934;8.656;2022-12-10T14:38:03;20.00;;;12.57;;
24559;SDS011;12727;49.934;8.656;2022-12-10T14:40:43;20.45;;;12.88;;
24559;SDS011;12727;49.934;8.656;2022-12-10T14:43:20;21.95;;;12.88;;
24559;SDS011;12727;49.934;8.656;2022-12-10T14:45:51;17.42;;;11.05;;
24559;SDS011;12727;49.934;8.656;2022-12-10T14:48:20;16.98;;;10.77;;
24559;SDS011;12727;49.934;8.656;2022-12-10T14:50:47;22.17;;;13.43;;
24559;SDS011;12727;49.934;8.656;2022-12-10T14:53:28;21.23;;;12.05;;
24559;SDS011;12727;49.934;8.656;2022-12-10T14:55:57;18.83;;;11.82;;
24559;SDS011;12727;49.934;8.656;2022-12-10T14:58:44;19.02;;;10.90;;
24559;SDS011;12727;49.934;8.656;2022-12-10T15:03:44;20.33;;;12.02;;
24559;SDS011;12727;49.934;8.656;2022-12-10T15:06:13;19.30;;;12.05;;
24559;SDS011;12727;49.934;8.656;2022-12-10T15:08:41;20.45;;;11.60;;
24559;SDS011;12727;49.934;8.656;2022-12-10T15:11:14;19.27;;;12.35;;
24559;SDS011;12727;49.934;8.656;2022-12-10T15:13:43;18.70;;;11.20;;
24559;SDS011;12727;49.934;8.656;2022-12-10T15:16:21;19.77;;;12.05;;
24559;SDS011;12727;49.934;8.656;2022-12-10T15:18:54;18.92;;;11.88;;
24559;SDS011;12727;49.934;8.656;2022-12-10T15:21:22;17.70;;;11.35;;
24559;SDS011;12727;49.934;8.656;2022-12-10T15:23:49;18.00;;;11.38;;
24559;SDS011;12727;49.934;8.656;2022-12-10T15:26:32;18.58;;;11.43;;
24559;SDS011;12727;49.934;8.656;2022-12-10T15:31:47;20.05;;;12.15;;
24559;SDS011;12727;49.934;8.656;2022-12-10T15:34:14;18.60;;;11.80;;
24559;SDS011;12727;49.934;8.656;2022-12-10T15:36:41;18.30;;;11.60;;
24559;SDS011;12727;49.934;8.656;2022-12-10T15:47:20;18.42;;;11.65;;
24559;SDS011;12727;49.934;8.656;2022-12-10T15:49:51;19.80;;;11.68;;
24559;SDS011;12727;49.934;8.656;2022-12-10T15:52:19;19.92;;;11.48;;
24559;SDS011;12727;49.934;8.656;2022-12-10T15:54:48;18.85;;;11.60;;
24559;SDS011;12727;49.934;8.656;2022-12-10T15:57:21;19.42;;;11.68;;
24559;SDS011;12727;49.934;8.656;2022-12-10T15:59:58;16.55;;;10.65;;
24559;SDS011;12727;49.934;8.656;2022-12-10T16:05:22;17.27;;;10.68;;
24559;SDS011;12727;49.934;8.656;2022-12-10T16:07:53;18.30;;;10.88;;
24559;SDS011;12727;49.934;8.656;2022-12-10T16:10:21;19.30;;;12.07;;
24559;SDS011;12727;49.934;8.656;2022-12-10T16:12:49;19.52;;;11.80;;
24559;SDS011;12727;49.934;8.656;2022-12-10T16:15:24;20.52;;;12.05;;
24559;SDS011;12727;49.934;8.656;2022-12-10T16:17:52;19.92;;;12.63;;
24559;SDS011;12727;49.934;8.656;2022-12-10T16:20:36;19.88;;;12.32;;
24559;SDS011;12727;49.934;8.656;2022-12-10T16:23:04;17.52;;;10.90;;
24559;SDS011;12727;49.934;8.656;2022-12-10T16:25:31;17.40;;;10.77;;
24559;SDS011;12727;49.934;8.656;2022-12-10T16:27:58;19.73;;;11.57;;
24559;SDS011;12727;49.934;8.656;2022-12-10T16:32:54;19.60;;;12.13;;
24559;SDS011;12727;49.934;8.656;2022-12-10T16:35:20;21.98;;;12.20;;
24559;SDS011;12727;49.934;8.656;2022-12-10T16:37:47;20.77;;;11.68;;
24559;SDS011;12727;49.934;8.656;2022-12-10T16:40:15;19.77;;;11.85;;
24559;SDS011;12727;49.934;8.656;2022-12-10T16:42:42;21.55;;;12.35;;
24559;SDS011;12727;49.934;8.656;2022-12-10T16:48:19;24.05;;;12.55;;
24559;SDS011;12727;49.934;8.656;2022-12-10T16:50:45;22.85;;;13.18;;
24559;SDS011;12727;49.934;8.656;2022-12-10T16:53:19;24.73;;;14.63;;
24559;SDS011;12727;49.934;8.656;2022-12-10T16:55:46;25.65;;;14.18;;
24559;SDS011;12727;49.934;8.656;2022-12-10T16:58:12;24.27;;;14.02;;
24559;SDS011;12727;49.934;8.656;2022-12-10T17:00:39;18.25;;;11.25;;
24559;SDS011;12727;49.934;8.656;2022-12-10T17:03:08;20.42;;;12.40;;
24559;SDS011;12727;49.934;8.656;2022-12-10T17:05:50;19.27;;;11.80;;
24559;SDS011;12727;49.934;8.656;2022-12-10T17:08:16;19.90;;;11.43;;
24559;SDS011;12727;49.934;8.656;2022-12-10T17:10:42;23.20;;;12.52;;
24559;SDS011;12727;49.934;8.656;2022-12-10T17:13:26;18.85;;;11.80;;
24559;SDS011;12727;49.934;8.656;2022-12-10T17:15:54;23.40;;;12.90;;
24559;SDS011;12727;49.934;8.656;2022-12-10T17:18:21;21.33;;;12.90;;
24559;SDS011;12727;49.934;8.656;2022-12-10T17:20:47;26.10;;;13.73;;